sensor_id;sensor_type;location;lat;lon;timestamp;P1;durP1;ratioP1;P2;durP2;ratioP2
73593;SDS011;62064;53.406;23.500;2022-10-16T00:02:20;12.55;;;7.10;;
73593;SDS011;62064;53.406;23.500;2022-10-16T00:04:46;9.35;;;6.43;;
73593;SDS011;62064;53.406;23.500;2022-10-16T00:07:12;12.43;;;7.32;;
73593;SDS011;62064;53.406;23.500;2022-10-16T00:09:38;9.85;;;7.03;;
73593;SDS011;62064;53.406;23.500;2022-10-16T00:12:04;13.57;;;7.13;;
73593;SDS011;62064;53.406;23.500;2022-10-16T00:14:32;12.32;;;6.82;;
73593;SDS011;62064;53.406;23.500;2022-10-16T00:16:58;13.18;;;6.75;;
73593;SDS011;62064;53.406;23.500;2022-10-16T00:19:24;11.68;;;6.80;;
73593;SDS011;62064;53.406;23.500;2022-10-16T00:21:50;11.98;;;6.35;;
73593;SDS011;62064;53.406;23.500;2022-10-16T00:24:36;11.55;;;6.22;;
73593;SDS011;62064;53.406;23.500;2022-10-16T00:27:02;10.20;;;6.32;;
73593;SDS011;62064;53.406;23.500;2022-10-16T00:29:29;12.25;;;7.07;;
73593;SDS011;62064;53.406;23.500;2022-10-16T00:31:57;16.52;;;7.25;;
73593;SDS011;62064;53.406;23.500;2022-10-16T00:34:24;12.38;;;6.82;;
73593;SDS011;62064;53.406;23.500;2022-10-16T00:36:49;12.73;;;7.00;;
73593;SDS011;62064;53.406;23.500;2022-10-16T00:39:16;9.73;;;6.35;;
73593;SDS011;62064;53.406;23.500;2022-10-16T00:41:42;11.93;;;6.95;;
73593;SDS011;62064;53.406;23.500;2022-10-16T00:47:17;12.73;;;6.03;;
73593;SDS011;62064;53.406;23.500;2022-10-16T00:49:47;10.68;;;6.47;;
73593;SDS011;62064;53.406;23.500;2022-10-16T00:52:16;10.13;;;6.50;;
73593;SDS011;62064;53.406;23.500;2022-10-16T00:54:43;10.70;;;5.93;;
73593;SDS011;62064;53.406;23.500;2022-10-16T00:57:13;9.85;;;6.00;;
73593;SDS011;62064;53.406;23.500;2022-10-16T00:59:40;9.85;;;6.05;;
73593;SDS011;62064;53.406;23.500;2022-10-16T01:02:13;10.98;;;5.93;;
73593;SDS011;62064;53.406;23.500;2022-10-16T01:04:44;9.93;;;6.20;;
73593;SDS011;62064;53.406;23.500;2022-10-16T01:14:58;9.18;;;6.18;;
73593;SDS011;62064;53.406;23.500;2022-10-16T01:17:48;9.68;;;5.60;;
73593;SDS011;62064;53.406;23.500;2022-10-16T01:20:25;9.25;;;6.03;;
73593;SDS011;62064;53.406;23.500;2022-10-16T01:23:15;8.55;;;5.65;;
73593;SDS011;62064;53.406;23.500;2022-10-16T01:28:45;10.25;;;5.82;;
73593;SDS011;62064;53.406;23.500;2022-10-16T01:31:26;9.90;;;6.20;;
73593;SDS011;62064;53.406;23.500;2022-10-16T01:36:34;11.55;;;5.78;;
73593;SDS011;62064;53.406;23.500;2022-10-16T01:39:05;9.35;;;5.60;;
73593;SDS011;62064;53.406;23.500;2022-10-16T01:41:41;10.20;;;6.10;;
73593;SDS011;62064;53.406;23.500;2022-10-16T01:44:21;10.30;;;6.55;;
73593;SDS011;62064;53.406;23.500;2022-10-16T01:46:54;9.90;;;5.88;;
73593;SDS011;62064;53.406;23.500;2022-10-16T01:49:21;9.45;;;6.10;;
73593;SDS011;62064;53.406;23.500;2022-10-16T01:51:52;12.02;;;6.28;;
73593;SDS011;62064;53.406;23.500;2022-10-16T01:54:22;9.80;;;5.93;;
73593;SDS011;62064;53.406;23.500;2022-10-16T01:56:53;10.82;;;6.05;;
73593;SDS011;62064;53.406;23.500;2022-10-16T01:59:21;10.70;;;6.03;;
73593;SDS011;62064;53.406;23.500;2022-10-16T02:01:52;12.23;;;6.25;;
73593;SDS011;62064;53.406;23.500;2022-10-16T02:04:32;9.40;;;5.90;;
73593;SDS011;62064;53.406;23.500;2022-10-16T02:07:08;9.25;;;5.63;;
73593;SDS011;62064;53.406;23.500;2022-10-16T02:09:34;9.40;;;5.80;;
73593;SDS011;62064;53.406;23.500;2022-10-16T02:14:44;9.18;;;5.30;;
73593;SDS011;62064;53.406;23.500;2022-10-16T02:17:12;8.27;;;5.38;;
73593;SDS011;62064;53.406;23.500;2022-10-16T02:19:41;8.68;;;5.03;;
73593;SDS011;62064;53.406;23.500;2022-10-16T02:22:11;9.70;;;5.85;;
73593;SDS011;62064;53.406;23.500;2022-10-16T02:32:42;9.80;;;5.20;;
73593;SDS011;62064;53.406;23.500;2022-10-16T02:35:11;9.38;;;5.85;;
73593;SDS011;62064;53.406;23.500;2022-10-16T02:37:39;8.63;;;5.53;;
73593;SDS011;62064;53.406;23.500;2022-10-16T02:40:06;8.52;;;5.50;;
73593;SDS011;62064;53.406;23.500;2022-10-16T02:42:35;8.88;;;5.38;;
73593;SDS011;62064;53.406;23.500;2022-10-16T02:45:04;8.07;;;5.68;;
73593;SDS011;62064;53.406;23.500;2022-10-16T02:47:31;8.32;;;5.18;;
73593;SDS011;62064;53.406;23.500;2022-10-16T02:49:58;7.95;;;5.28;;
73593;SDS011;62064;53.406;23.500;2022-10-16T02:52:25;9.60;;;5.30;;
73593;SDS011;62064;53.406;23.500;2022-10-16T02:54:51;10.63;;;6.05;;
73593;SDS011;62064;53.406;23.500;2022-10-16T02:57:41;7.03;;;4.88;;
73593;SDS011;62064;53.406;23.500;2022-10-16T03:00:08;8.27;;;5.65;;
73593;SDS011;62064;53.406;23.500;2022-10-16T03:02:37;7.85;;;5.35;;
73593;SDS011;62064;53.406;23.500;2022-10-16T03:05:05;8.70;;;5.55;;
73593;SDS011;62064;53.406;23.500;2022-10-16T03:07:33;8.75;;;5.63;;
73593;SDS011;62064;53.406;23.500;2022-10-16T03:09:59;8.60;;;5.30;;
73593;SDS011;62064;53.406;23.500;2022-10-16T03:12:26;9.88;;;5.03;;
73593;SDS011;62064;53.406;23.500;2022-10-16T03:17:19;8.00;;;5.15;;
73593;SDS011;62064;53.406;23.500;2022-10-16T03:19:46;8.23;;;5.00;;
73593;SDS011;62064;53.406;23.500;2022-10-16T03:22:13;8.18;;;4.93;;
73593;SDS011;62064;53.406;23.500;2022-10-16T03:24:40;8.00;;;5.38;;
73593;SDS011;62064;53.406;23.500;2022-10-16T03:27:06;9.07;;;5.57;;
73593;SDS011;62064;53.406;23.500;2022-10-16T03:29:32;8.90;;;5.22;;
73593;SDS011;62064;53.406;23.500;2022-10-16T03:31:59;8.00;;;4.88;;
73593;SDS011;62064;53.406;23.500;2022-10-16T03:34:25;8.23;;;5.53;;
73593;SDS011;62064;53.406;23.500;2022-10-16T03:36:51;10.55;;;5.35;;
73593;SDS011;62064;53.406;23.500;2022-10-16T03:39:18;10.10;;;4.72;;
73593;SDS011;62064;53.406;23.500;2022-10-16T03:41:44;8.80;;;4.95;;
73593;SDS011;62064;53.406;23.500;2022-10-16T03:44:13;11.35;;;5.22;;
73593;SDS011;62064;53.406;23.500;2022-10-16T03:46:45;10.48;;;5.72;;
73593;SDS011;62064;53.406;23.500;2022-10-16T03:49:16;8.90;;;5.20;;
73593;SDS011;62064;53.406;23.500;2022-10-16T03:51:42;7.15;;;5.20;;
73593;SDS011;62064;53.406;23.500;2022-10-16T03:54:09;8.75;;;5.20;;
73593;SDS011;62064;53.406;23.500;2022-10-16T03:56:36;8.65;;;5.25;;
73593;SDS011;62064;53.406;23.500;2022-10-16T03:59:02;11.63;;;6.63;;
73593;SDS011;62064;53.406;23.500;2022-10-16T04:01:28;9.43;;;5.82;;
73593;SDS011;62064;53.406;23.500;2022-10-16T04:03:54;10.48;;;5.47;;
73593;SDS011;62064;53.406;23.500;2022-10-16T04:06:21;10.98;;;5.72;;
73593;SDS011;62064;53.406;23.500;2022-10-16T04:08:47;11.15;;;5.53;;
73593;SDS011;62064;53.406;23.500;2022-10-16T04:11:13;9.15;;;5.70;;
73593;SDS011;62064;53.406;23.500;2022-10-16T04:13:39;14.80;;;5.70;;
73593;SDS011;62064;53.406;23.500;2022-10-16T04:16:05;10.30;;;5.65;;
73593;SDS011;62064;53.406;23.500;2022-10-16T04:18:35;10.25;;;5.78;;
73593;SDS011;62064;53.406;23.500;2022-10-16T04:21:07;11.57;;;5.65;;
73593;SDS011;62064;53.406;23.500;2022-10-16T04:23:34;11.27;;;5.82;;
73593;SDS011;62064;53.406;23.500;2022-10-16T04:26:00;10.30;;;5.60;;
73593;SDS011;62064;53.406;23.500;2022-10-16T04:28:27;14.25;;;5.43;;
73593;SDS011;62064;53.406;23.500;2022-10-16T04:30:55;10.73;;;4.93;;
73593;SDS011;62064;53.406;23.500;2022-10-16T04:33:21;10.68;;;5.28;;
73593;SDS011;62064;53.406;23.500;2022-10-16T04:35:55;10.48;;;5.65;;
73593;SDS011;62064;53.406;23.500;2022-10-16T04:38:22;9.38;;;4.88;;
73593;SDS011;62064;53.406;23.500;2022-10-16T04:40:49;12.15;;;5.50;;
73593;SDS011;62064;53.406;23.500;2022-10-16T04:43:15;12.98;;;5.85;;
73593;SDS011;62064;53.406;23.500;2022-10-16T04:45:41;12.35;;;5.82;;
73593;SDS011;62064;53.406;23.500;2022-10-16T04:48:08;9.25;;;5.30;;
73593;SDS011;62064;53.406;23.500;2022-10-16T04:50:35;15.30;;;5.32;;
73593;SDS011;62064;53.406;23.500;2022-10-16T04:53:05;13.52;;;5.93;;
73593;SDS011;62064;53.406;23.500;2022-10-16T04:55:32;10.13;;;4.97;;
73593;SDS011;62064;53.406;23.500;2022-10-16T04:57:58;8.98;;;5.10;;
73593;SDS011;62064;53.406;23.500;2022-10-16T05:00:24;11.70;;;5.88;;
73593;SDS011;62064;53.406;23.500;2022-10-16T05:02:50;12.40;;;5.55;;
73593;SDS011;62064;53.406;23.500;2022-10-16T05:05:17;10.32;;;5.03;;
73593;SDS011;62064;53.406;23.500;2022-10-16T05:07:45;9.95;;;5.43;;
73593;SDS011;62064;53.406;23.500;2022-10-16T05:10:13;14.52;;;5.60;;
73593;SDS011;62064;53.406;23.500;2022-10-16T05:12:39;10.68;;;5.15;;
73593;SDS011;62064;53.406;23.500;2022-10-16T05:15:07;9.95;;;5.50;;
73593;SDS011;62064;53.406;23.500;2022-10-16T05:17:34;13.15;;;5.00;;
73593;SDS011;62064;53.406;23.500;2022-10-16T05:20:00;11.57;;;5.18;;
73593;SDS011;62064;53.406;23.500;2022-10-16T05:22:26;10.18;;;5.03;;
73593;SDS011;62064;53.406;23.500;2022-10-16T05:24:52;9.57;;;5.18;;
73593;SDS011;62064;53.406;23.500;2022-10-16T05:27:18;13.38;;;5.00;;
73593;SDS011;62064;53.406;23.500;2022-10-16T05:29:45;8.98;;;5.38;;
73593;SDS011;62064;53.406;23.500;2022-10-16T05:32:13;11.85;;;5.47;;
73593;SDS011;62064;53.406;23.500;2022-10-16T05:34:42;10.73;;;5.30;;
73593;SDS011;62064;53.406;23.500;2022-10-16T05:37:09;10.43;;;5.57;;
73593;SDS011;62064;53.406;23.500;2022-10-16T05:39:35;9.85;;;5.80;;
73593;SDS011;62064;53.406;23.500;2022-10-16T05:42:02;9.13;;;4.95;;
73593;SDS011;62064;53.406;23.500;2022-10-16T05:44:30;12.73;;;5.68;;
73593;SDS011;62064;53.406;23.500;2022-10-16T05:46:57;10.25;;;4.95;;
73593;SDS011;62064;53.406;23.500;2022-10-16T05:49:23;10.32;;;5.45;;
73593;SDS011;62064;53.406;23.500;2022-10-16T05:51:51;10.20;;;4.68;;
73593;SDS011;62064;53.406;23.500;2022-10-16T05:54:18;8.05;;;4.57;;
73593;SDS011;62064;53.406;23.500;2022-10-16T05:56:44;11.85;;;5.05;;
73593;SDS011;62064;53.406;23.500;2022-10-16T05:59:13;9.68;;;4.70;;
73593;SDS011;62064;53.406;23.500;2022-10-16T06:01:39;11.63;;;4.60;;
73593;SDS011;62064;53.406;23.500;2022-10-16T06:04:06;8.57;;;4.88;;
73593;SDS011;62064;53.406;23.500;2022-10-16T06:06:32;9.43;;;4.88;;
73593;SDS011;62064;53.406;23.500;2022-10-16T06:08:58;11.32;;;4.88;;
73593;SDS011;62064;53.406;23.500;2022-10-16T06:11:26;9.30;;;4.88;;
73593;SDS011;62064;53.406;23.500;2022-10-16T06:13:55;10.00;;;5.07;;
73593;SDS011;62064;53.406;23.500;2022-10-16T06:16:23;10.00;;;5.22;;
73593;SDS011;62064;53.406;23.500;2022-10-16T06:18:51;7.90;;;4.80;;
73593;SDS011;62064;53.406;23.500;2022-10-16T06:21:22;7.82;;;4.85;;
73593;SDS011;62064;53.406;23.500;2022-10-16T06:23:53;11.82;;;5.00;;
73593;SDS011;62064;53.406;23.500;2022-10-16T06:26:21;8.55;;;5.10;;
73593;SDS011;62064;53.406;23.500;2022-10-16T06:28:50;7.88;;;5.30;;
73593;SDS011;62064;53.406;23.500;2022-10-16T06:31:16;8.98;;;4.93;;
73593;SDS011;62064;53.406;23.500;2022-10-16T06:33:43;6.95;;;4.75;;
73593;SDS011;62064;53.406;23.500;2022-10-16T06:36:12;9.60;;;4.97;;
73593;SDS011;62064;53.406;23.500;2022-10-16T06:38:40;8.82;;;5.03;;
73593;SDS011;62064;53.406;23.500;2022-10-16T06:41:07;8.43;;;4.60;;
73593;SDS011;62064;53.406;23.500;2022-10-16T06:43:34;8.05;;;5.13;;
73593;SDS011;62064;53.406;23.500;2022-10-16T06:46:04;9.43;;;5.18;;
73593;SDS011;62064;53.406;23.500;2022-10-16T06:48:32;9.23;;;4.80;;
73593;SDS011;62064;53.406;23.500;2022-10-16T06:53:26;6.70;;;4.38;;
73593;SDS011;62064;53.406;23.500;2022-10-16T06:55:54;8.40;;;4.50;;
73593;SDS011;62064;53.406;23.500;2022-10-16T06:58:21;10.20;;;4.82;;
73593;SDS011;62064;53.406;23.500;2022-10-16T07:00:47;9.48;;;4.85;;
73593;SDS011;62064;53.406;23.500;2022-10-16T07:03:14;8.85;;;5.18;;
73593;SDS011;62064;53.406;23.500;2022-10-16T07:05:43;8.73;;;4.80;;
73593;SDS011;62064;53.406;23.500;2022-10-16T07:08:09;6.68;;;4.40;;
73593;SDS011;62064;53.406;23.500;2022-10-16T07:10:36;8.13;;;4.75;;
73593;SDS011;62064;53.406;23.500;2022-10-16T07:13:02;6.80;;;4.47;;
73593;SDS011;62064;53.406;23.500;2022-10-16T07:15:29;7.45;;;4.90;;
73593;SDS011;62064;53.406;23.500;2022-10-16T07:17:56;7.32;;;4.35;;
73593;SDS011;62064;53.406;23.500;2022-10-16T07:20:21;8.65;;;4.55;;
73593;SDS011;62064;53.406;23.500;2022-10-16T07:22:48;9.32;;;4.72;;
73593;SDS011;62064;53.406;23.500;2022-10-16T07:25:14;7.53;;;4.13;;
73593;SDS011;62064;53.406;23.500;2022-10-16T07:27:40;9.18;;;4.53;;
73593;SDS011;62064;53.406;23.500;2022-10-16T07:30:07;9.52;;;4.88;;
73593;SDS011;62064;53.406;23.500;2022-10-16T07:32:34;8.82;;;4.88;;
73593;SDS011;62064;53.406;23.500;2022-10-16T07:35:00;11.38;;;5.50;;
73593;SDS011;62064;53.406;23.500;2022-10-16T07:37:27;11.75;;;5.80;;
73593;SDS011;62064;53.406;23.500;2022-10-16T07:39:53;13.48;;;6.68;;
73593;SDS011;62064;53.406;23.500;2022-10-16T07:42:24;15.75;;;8.82;;
73593;SDS011;62064;53.406;23.500;2022-10-16T07:44:50;12.27;;;7.28;;
73593;SDS011;62064;53.406;23.500;2022-10-16T07:47:17;15.60;;;8.48;;
73593;SDS011;62064;53.406;23.500;2022-10-16T07:49:43;23.30;;;8.95;;
73593;SDS011;62064;53.406;23.500;2022-10-16T07:52:09;13.85;;;7.90;;
73593;SDS011;62064;53.406;23.500;2022-10-16T07:54:35;13.75;;;8.50;;
73593;SDS011;62064;53.406;23.500;2022-10-16T07:57:01;13.38;;;8.50;;
73593;SDS011;62064;53.406;23.500;2022-10-16T07:59:28;15.35;;;8.48;;
73593;SDS011;62064;53.406;23.500;2022-10-16T08:01:56;12.50;;;8.68;;
73593;SDS011;62064;53.406;23.500;2022-10-16T08:04:23;16.38;;;9.30;;
73593;SDS011;62064;53.406;23.500;2022-10-16T08:06:49;14.85;;;8.73;;
73593;SDS011;62064;53.406;23.500;2022-10-16T08:09:18;14.88;;;8.55;;
73593;SDS011;62064;53.406;23.500;2022-10-16T08:11:45;18.88;;;10.57;;
73593;SDS011;62064;53.406;23.500;2022-10-16T08:14:12;17.95;;;10.52;;
73593;SDS011;62064;53.406;23.500;2022-10-16T08:16:39;16.15;;;11.60;;
73593;SDS011;62064;53.406;23.500;2022-10-16T08:19:08;17.15;;;11.75;;
73593;SDS011;62064;53.406;23.500;2022-10-16T08:21:34;18.33;;;12.05;;
73593;SDS011;62064;53.406;23.500;2022-10-16T08:24:02;20.10;;;12.73;;
73593;SDS011;62064;53.406;23.500;2022-10-16T08:26:29;17.20;;;10.98;;
73593;SDS011;62064;53.406;23.500;2022-10-16T08:28:55;19.38;;;11.23;;
73593;SDS011;62064;53.406;23.500;2022-10-16T08:31:22;24.08;;;11.00;;
73593;SDS011;62064;53.406;23.500;2022-10-16T08:33:48;19.08;;;11.25;;
73593;SDS011;62064;53.406;23.500;2022-10-16T08:36:18;19.75;;;11.32;;
73593;SDS011;62064;53.406;23.500;2022-10-16T08:38:47;18.02;;;11.00;;
73593;SDS011;62064;53.406;23.500;2022-10-16T08:46:54;20.10;;;11.13;;
73593;SDS011;62064;53.406;23.500;2022-10-16T08:49:22;18.70;;;9.95;;
73593;SDS011;62064;53.406;23.500;2022-10-16T08:51:50;16.63;;;10.18;;
73593;SDS011;62064;53.406;23.500;2022-10-16T08:57:09;15.70;;;9.88;;
73593;SDS011;62064;53.406;23.500;2022-10-16T08:59:46;19.33;;;10.20;;
73593;SDS011;62064;53.406;23.500;2022-10-16T09:02:36;14.85;;;9.35;;
73593;SDS011;62064;53.406;23.500;2022-10-16T09:05:14;15.13;;;9.75;;
73593;SDS011;62064;53.406;23.500;2022-10-16T09:13:17;17.23;;;10.13;;
73593;SDS011;62064;53.406;23.500;2022-10-16T09:23:57;19.80;;;9.70;;
73593;SDS011;62064;53.406;23.500;2022-10-16T09:26:51;19.50;;;11.57;;
73593;SDS011;62064;53.406;23.500;2022-10-16T09:29:19;18.40;;;10.15;;
73593;SDS011;62064;53.406;23.500;2022-10-16T09:31:49;19.25;;;10.98;;
73593;SDS011;62064;53.406;23.500;2022-10-16T09:37:03;17.40;;;9.35;;
73593;SDS011;62064;53.406;23.500;2022-10-16T09:39:47;19.15;;;9.63;;
73593;SDS011;62064;53.406;23.500;2022-10-16T09:42:22;16.33;;;9.77;;
73593;SDS011;62064;53.406;23.500;2022-10-16T09:44:57;18.45;;;11.25;;
73593;SDS011;62064;53.406;23.500;2022-10-16T09:47:24;20.10;;;9.73;;
73593;SDS011;62064;53.406;23.500;2022-10-16T09:49:56;18.52;;;10.27;;
73593;SDS011;62064;53.406;23.500;2022-10-16T09:52:25;17.17;;;10.43;;
73593;SDS011;62064;53.406;23.500;2022-10-16T09:54:55;17.88;;;10.13;;
73593;SDS011;62064;53.406;23.500;2022-10-16T09:57:25;18.63;;;10.32;;
73593;SDS011;62064;53.406;23.500;2022-10-16T09:59:53;16.95;;;10.43;;
73593;SDS011;62064;53.406;23.500;2022-10-16T10:02:31;19.83;;;10.07;;
73593;SDS011;62064;53.406;23.500;2022-10-16T10:05:02;16.98;;;9.95;;
73593;SDS011;62064;53.406;23.500;2022-10-16T10:07:35;18.35;;;10.65;;
73593;SDS011;62064;53.406;23.500;2022-10-16T10:10:26;24.08;;;10.77;;
73593;SDS011;62064;53.406;23.500;2022-10-16T10:12:54;17.42;;;10.68;;
73593;SDS011;62064;53.406;23.500;2022-10-16T10:15:22;22.83;;;12.82;;
73593;SDS011;62064;53.406;23.500;2022-10-16T10:17:50;16.55;;;10.07;;
73593;SDS011;62064;53.406;23.500;2022-10-16T10:22:56;16.98;;;10.57;;
73593;SDS011;62064;53.406;23.500;2022-10-16T10:25:40;16.52;;;9.55;;
73593;SDS011;62064;53.406;23.500;2022-10-16T10:31:43;18.08;;;9.75;;
73593;SDS011;62064;53.406;23.500;2022-10-16T10:34:39;14.90;;;9.60;;
73593;SDS011;62064;53.406;23.500;2022-10-16T10:45:13;14.82;;;9.02;;
73593;SDS011;62064;53.406;23.500;2022-10-16T10:50:52;15.32;;;9.45;;
73593;SDS011;62064;53.406;23.500;2022-10-16T10:53:28;15.02;;;9.52;;
73593;SDS011;62064;53.406;23.500;2022-10-16T10:59:11;13.82;;;8.43;;
73593;SDS011;62064;53.406;23.500;2022-10-16T11:01:55;12.60;;;9.07;;
73593;SDS011;62064;53.406;23.500;2022-10-16T11:07:27;16.50;;;9.27;;
73593;SDS011;62064;53.406;23.500;2022-10-16T11:10:07;13.50;;;9.55;;
73593;SDS011;62064;53.406;23.500;2022-10-16T11:12:41;13.80;;;8.35;;
73593;SDS011;62064;53.406;23.500;2022-10-16T11:15:12;13.02;;;8.35;;
73593;SDS011;62064;53.406;23.500;2022-10-16T11:17:42;11.05;;;8.30;;
73593;SDS011;62064;53.406;23.500;2022-10-16T11:22:50;13.48;;;8.73;;
73593;SDS011;62064;53.406;23.500;2022-10-16T11:25:28;11.57;;;7.55;;
73593;SDS011;62064;53.406;23.500;2022-10-16T11:28:14;15.02;;;8.88;;
73593;SDS011;62064;53.406;23.500;2022-10-16T11:30:51;11.32;;;7.43;;
73593;SDS011;62064;53.406;23.500;2022-10-16T11:33:54;11.88;;;8.50;;
73593;SDS011;62064;53.406;23.500;2022-10-16T11:39:25;13.93;;;8.25;;
73593;SDS011;62064;53.406;23.500;2022-10-16T11:47:27;11.23;;;7.85;;
73593;SDS011;62064;53.406;23.500;2022-10-16T11:49:57;10.82;;;8.07;;
73593;SDS011;62064;53.406;23.500;2022-10-16T11:52:39;13.18;;;8.13;;
73593;SDS011;62064;53.406;23.500;2022-10-16T11:55:20;10.95;;;7.88;;
73593;SDS011;62064;53.406;23.500;2022-10-16T11:58:05;11.05;;;8.00;;
73593;SDS011;62064;53.406;23.500;2022-10-16T12:03:39;10.80;;;8.05;;
73593;SDS011;62064;53.406;23.500;2022-10-16T12:08:42;12.25;;;8.07;;
73593;SDS011;62064;53.406;23.500;2022-10-16T12:16:38;10.75;;;7.15;;
73593;SDS011;62064;53.406;23.500;2022-10-16T12:19:22;10.27;;;6.93;;
73593;SDS011;62064;53.406;23.500;2022-10-16T12:21:54;11.23;;;7.75;;
73593;SDS011;62064;53.406;23.500;2022-10-16T12:26:51;13.05;;;7.60;;
73593;SDS011;62064;53.406;23.500;2022-10-16T12:29:26;13.38;;;7.75;;
73593;SDS011;62064;53.406;23.500;2022-10-16T12:32:02;10.50;;;7.07;;
73593;SDS011;62064;53.406;23.500;2022-10-16T12:34:50;11.75;;;7.68;;
73593;SDS011;62064;53.406;23.500;2022-10-16T12:37:29;10.35;;;7.40;;
73593;SDS011;62064;53.406;23.500;2022-10-16T12:39:59;12.77;;;7.63;;
73593;SDS011;62064;53.406;23.500;2022-10-16T12:42:38;12.20;;;7.90;;
73593;SDS011;62064;53.406;23.500;2022-10-16T12:48:20;11.40;;;8.00;;
73593;SDS011;62064;53.406;23.500;2022-10-16T12:50:47;12.65;;;7.43;;
73593;SDS011;62064;53.406;23.500;2022-10-16T12:53:21;9.80;;;6.93;;
73593;SDS011;62064;53.406;23.500;2022-10-16T12:55:52;11.77;;;7.43;;
73593;SDS011;62064;53.406;23.500;2022-10-16T13:00:52;10.35;;;7.07;;
73593;SDS011;62064;53.406;23.500;2022-10-16T13:03:37;10.80;;;7.07;;
73593;SDS011;62064;53.406;23.500;2022-10-16T13:11:19;12.65;;;7.75;;
73593;SDS011;62064;53.406;23.500;2022-10-16T13:16:35;10.02;;;7.15;;
73593;SDS011;62064;53.406;23.500;2022-10-16T13:22:17;11.32;;;6.95;;
73593;SDS011;62064;53.406;23.500;2022-10-16T13:27:54;12.68;;;7.93;;
73593;SDS011;62064;53.406;23.500;2022-10-16T13:30:46;11.50;;;8.27;;
73593;SDS011;62064;53.406;23.500;2022-10-16T13:33:32;12.40;;;7.28;;
73593;SDS011;62064;53.406;23.500;2022-10-16T13:36:01;9.52;;;7.22;;
73593;SDS011;62064;53.406;23.500;2022-10-16T13:38:35;9.68;;;7.00;;
73593;SDS011;62064;53.406;23.500;2022-10-16T13:41:12;9.35;;;6.82;;
73593;SDS011;62064;53.406;23.500;2022-10-16T13:43:44;13.15;;;7.47;;
73593;SDS011;62064;53.406;23.500;2022-10-16T13:46:15;13.95;;;8.43;;
73593;SDS011;62064;53.406;23.500;2022-10-16T13:48:43;11.27;;;8.23;;
73593;SDS011;62064;53.406;23.500;2022-10-16T13:53:46;10.68;;;7.70;;
73593;SDS011;62064;53.406;23.500;2022-10-16T13:56:29;11.00;;;7.85;;
73593;SDS011;62064;53.406;23.500;2022-10-16T14:01:33;14.07;;;7.97;;
73593;SDS011;62064;53.406;23.500;2022-10-16T14:04:22;12.20;;;7.95;;
73593;SDS011;62064;53.406;23.500;2022-10-16T14:06:50;12.93;;;8.00;;
73593;SDS011;62064;53.406;23.500;2022-10-16T14:09:22;12.20;;;7.78;;
73593;SDS011;62064;53.406;23.500;2022-10-16T14:11:55;13.13;;;7.95;;
73593;SDS011;62064;53.406;23.500;2022-10-16T14:14:32;14.30;;;7.45;;
73593;SDS011;62064;53.406;23.500;2022-10-16T14:17:04;10.98;;;7.70;;
73593;SDS011;62064;53.406;23.500;2022-10-16T14:19:35;11.70;;;7.88;;
73593;SDS011;62064;53.406;23.500;2022-10-16T14:22:11;12.63;;;7.15;;
73593;SDS011;62064;53.406;23.500;2022-10-16T14:25:13;9.77;;;6.95;;
73593;SDS011;62064;53.406;23.500;2022-10-16T14:27:44;11.80;;;8.13;;
73593;SDS011;62064;53.406;23.500;2022-10-16T14:30:16;11.05;;;7.88;;
73593;SDS011;62064;53.406;23.500;2022-10-16T14:33:01;12.07;;;7.22;;
73593;SDS011;62064;53.406;23.500;2022-10-16T14:35:35;12.00;;;7.57;;
73593;SDS011;62064;53.406;23.500;2022-10-16T14:38:05;10.75;;;7.32;;
73593;SDS011;62064;53.406;23.500;2022-10-16T14:40:46;10.23;;;7.18;;
73593;SDS011;62064;53.406;23.500;2022-10-16T14:43:17;10.10;;;7.63;;
73593;SDS011;62064;53.406;23.500;2022-10-16T14:45:53;11.32;;;7.53;;
73593;SDS011;62064;53.406;23.500;2022-10-16T14:48:21;11.68;;;7.45;;
73593;SDS011;62064;53.406;23.500;2022-10-16T14:50:48;10.43;;;7.88;;
73593;SDS011;62064;53.406;23.500;2022-10-16T14:53:14;11.57;;;7.95;;
73593;SDS011;62064;53.406;23.500;2022-10-16T14:55:41;12.05;;;8.07;;
73593;SDS011;62064;53.406;23.500;2022-10-16T14:58:15;12.50;;;8.13;;
73593;SDS011;62064;53.406;23.500;2022-10-16T15:00:42;10.07;;;7.80;;
73593;SDS011;62064;53.406;23.500;2022-10-16T15:03:13;11.52;;;8.02;;
73593;SDS011;62064;53.406;23.500;2022-10-16T15:05:40;10.77;;;7.43;;
73593;SDS011;62064;53.406;23.500;2022-10-16T15:08:06;12.68;;;8.18;;
73593;SDS011;62064;53.406;23.500;2022-10-16T15:10:39;10.90;;;7.97;;
73593;SDS011;62064;53.406;23.500;2022-10-16T15:13:11;12.27;;;8.02;;
73593;SDS011;62064;53.406;23.500;2022-10-16T15:15:44;14.13;;;7.82;;
73593;SDS011;62064;53.406;23.500;2022-10-16T15:18:11;13.20;;;8.40;;
73593;SDS011;62064;53.406;23.500;2022-10-16T15:20:40;12.35;;;8.05;;
73593;SDS011;62064;53.406;23.500;2022-10-16T15:23:12;10.90;;;7.60;;
73593;SDS011;62064;53.406;23.500;2022-10-16T15:25:45;12.25;;;7.32;;
73593;SDS011;62064;53.406;23.500;2022-10-16T15:28:12;12.68;;;8.13;;
73593;SDS011;62064;53.406;23.500;2022-10-16T15:30:40;9.25;;;6.93;;
73593;SDS011;62064;53.406;23.500;2022-10-16T15:33:17;11.05;;;7.95;;
73593;SDS011;62064;53.406;23.500;2022-10-16T15:35:47;13.25;;;8.75;;
73593;SDS011;62064;53.406;23.500;2022-10-16T15:38:14;9.43;;;7.22;;
73593;SDS011;62064;53.406;23.500;2022-10-16T15:43:07;12.88;;;8.25;;
73593;SDS011;62064;53.406;23.500;2022-10-16T15:45:35;13.63;;;7.85;;
73593;SDS011;62064;53.406;23.500;2022-10-16T15:48:01;10.80;;;7.45;;
73593;SDS011;62064;53.406;23.500;2022-10-16T15:50:28;11.93;;;7.53;;
73593;SDS011;62064;53.406;23.500;2022-10-16T15:52:56;12.52;;;8.50;;
73593;SDS011;62064;53.406;23.500;2022-10-16T15:55:22;12.85;;;8.23;;
73593;SDS011;62064;53.406;23.500;2022-10-16T15:57:49;14.30;;;8.60;;
73593;SDS011;62064;53.406;23.500;2022-10-16T16:00:16;11.45;;;8.35;;
73593;SDS011;62064;53.406;23.500;2022-10-16T16:02:49;11.88;;;8.55;;
73593;SDS011;62064;53.406;23.500;2022-10-16T16:05:20;11.43;;;7.82;;
73593;SDS011;62064;53.406;23.500;2022-10-16T16:07:47;13.05;;;8.55;;
73593;SDS011;62064;53.406;23.500;2022-10-16T16:10:14;12.45;;;8.20;;
73593;SDS011;62064;53.406;23.500;2022-10-16T16:12:41;11.90;;;8.48;;
73593;SDS011;62064;53.406;23.500;2022-10-16T16:15:07;12.95;;;8.15;;
73593;SDS011;62064;53.406;23.500;2022-10-16T16:17:36;11.55;;;8.55;;
73593;SDS011;62064;53.406;23.500;2022-10-16T16:20:04;11.05;;;7.85;;
73593;SDS011;62064;53.406;23.500;2022-10-16T16:22:30;11.55;;;8.38;;
73593;SDS011;62064;53.406;23.500;2022-10-16T16:24:57;12.35;;;8.00;;
73593;SDS011;62064;53.406;23.500;2022-10-16T16:27:23;10.73;;;7.47;;
73593;SDS011;62064;53.406;23.500;2022-10-16T16:29:52;11.70;;;8.15;;
73593;SDS011;62064;53.406;23.500;2022-10-16T16:32:22;11.10;;;8.40;;
73593;SDS011;62064;53.406;23.500;2022-10-16T16:34:48;11.93;;;8.27;;
73593;SDS011;62064;53.406;23.500;2022-10-16T16:37:14;9.77;;;7.97;;
73593;SDS011;62064;53.406;23.500;2022-10-16T16:39:40;11.95;;;8.07;;
73593;SDS011;62064;53.406;23.500;2022-10-16T16:42:06;11.75;;;8.18;;
73593;SDS011;62064;53.406;23.500;2022-10-16T16:44:33;11.43;;;8.63;;
73593;SDS011;62064;53.406;23.500;2022-10-16T16:47:02;12.90;;;8.90;;
73593;SDS011;62064;53.406;23.500;2022-10-16T16:49:29;12.15;;;8.18;;
73593;SDS011;62064;53.406;23.500;2022-10-16T16:51:55;12.02;;;8.80;;
73593;SDS011;62064;53.406;23.500;2022-10-16T16:54:22;12.23;;;8.90;;